createdAt,value
2022-11-29T04:46:35.330Z,9.10
2022-11-29T04:49:02.577Z,9.00
2022-11-29T04:51:43.476Z,9.00
2022-11-29T04:54:13.198Z,9.00
2022-11-29T04:56:45.554Z,9.00
2022-11-29T04:59:35.561Z,9.00
2022-11-29T05:02:21.436Z,9.00
2022-11-29T05:05:06.870Z,9.00
2022-11-29T05:07:39.793Z,9.00
2022-11-29T05:10:06.983Z,9.00
2022-11-29T05:12:46.701Z,9.00
2022-11-29T05:15:16.434Z,9.00
2022-11-29T05:17:57.600Z,9.10
2022-11-29T05:20:42.999Z,9.10
2022-11-29T05:23:28.484Z,9.10
2022-11-29T05:26:00.319Z,9.20
2022-11-29T05:28:37.019Z,9.10
2022-11-29T05:31:17.378Z,9.00
2022-11-29T05:34:02.987Z,8.90
2022-11-29T05:36:48.569Z,8.90
2022-11-29T05:39:15.513Z,9.00
2022-11-29T05:41:42.429Z,9.20
2022-11-29T05:44:09.323Z,9.00
2022-11-29T05:46:42.907Z,9.10
2022-11-29T05:49:24.222Z,9.10
2022-11-29T05:51:51.471Z,9.00
2022-11-29T05:54:26.236Z,9.30
2022-11-29T05:57:05.522Z,8.90
2022-11-29T05:59:34.292Z,8.90
2022-11-29T06:02:11.580Z,8.90
2022-11-29T06:04:49.887Z,9.00
2022-11-29T06:07:20.553Z,9.00
2022-11-29T06:09:52.894Z,8.90
2022-11-29T06:12:21.646Z,8.90
2022-11-29T06:14:55.499Z,8.90
2022-11-29T06:17:25.874Z,8.90
2022-11-29T06:19:59.262Z,8.90
2022-11-29T06:22:44.988Z,8.80
2022-11-29T06:25:31.532Z,8.80
2022-11-29T06:28:02.154Z,8.90
2022-11-29T06:30:38.556Z,8.90
2022-11-29T06:33:15.376Z,8.90
2022-11-29T06:35:52.030Z,8.90
2022-11-29T06:38:27.336Z,8.90
2022-11-29T06:41:01.384Z,8.80
2022-11-29T06:43:29.422Z,8.80
2022-11-29T06:45:58.986Z,8.80
2022-11-29T06:48:27.259Z,8.80
2022-11-29T06:50:54.175Z,8.80
2022-11-29T06:53:29.964Z,8.80
2022-11-29T06:55:56.885Z,8.80
2022-11-29T06:58:39.701Z,8.90
2022-11-29T07:01:20.072Z,8.80
2022-11-29T07:03:49.906Z,8.80
2022-11-29T07:06:24.782Z,8.80
2022-11-29T07:08:53.944Z,8.80
2022-11-29T07:11:21.162Z,8.80
2022-11-29T07:13:48.256Z,8.80
2022-11-29T07:16:21.020Z,8.80
2022-11-29T07:19:03.109Z,8.80
2022-11-29T07:21:53.479Z,8.90
2022-11-29T07:24:20.395Z,8.90
2022-11-29T07:26:59.549Z,8.80
2022-11-29T07:29:32.778Z,8.80
2022-11-29T07:31:59.782Z,8.80
2022-11-29T07:34:38.665Z,8.90
2022-11-29T07:37:11.537Z,8.90
2022-11-29T07:39:53.589Z,9.00
2022-11-29T07:42:25.741Z,9.00
2022-11-29T07:44:52.693Z,9.00
2022-11-29T07:47:19.707Z,9.00
2022-11-29T07:49:46.639Z,9.00
2022-11-29T07:52:14.480Z,9.00
2022-11-29T07:54:41.783Z,9.00
2022-11-29T07:57:08.731Z,9.00
2022-11-29T07:59:35.755Z,9.00
2022-11-29T08:02:04.673Z,9.10
2022-11-29T08:04:40.234Z,9.10
2022-11-29T08:07:07.169Z,9.10
2022-11-29T08:09:34.166Z,9.20
2022-11-29T08:12:01.244Z,9.30
2022-11-29T08:14:31.045Z,9.30
2022-11-29T08:16:58.029Z,9.30
2022-11-29T08:19:25.010Z,9.40
2022-11-29T08:21:52.219Z,9.40
2022-11-29T08:24:19.301Z,9.40
2022-11-29T08:26:46.348Z,9.40
2022-11-29T08:29:13.367Z,9.40
2022-11-29T08:31:40.405Z,9.40
2022-11-29T08:34:07.579Z,9.50
2022-11-29T08:36:34.608Z,9.60
2022-11-29T08:39:08.994Z,9.70
2022-11-29T08:41:36.693Z,9.70
2022-11-29T08:44:06.555Z,9.70
2022-11-29T08:46:52.503Z,9.60
2022-11-29T08:49:19.451Z,9.60
2022-11-29T08:51:46.425Z,9.60
2022-11-29T08:54:13.458Z,9.60
2022-11-29T08:59:27.576Z,9.60
2022-11-29T09:01:54.583Z,9.70
2022-11-29T09:04:21.641Z,9.80
2022-11-29T09:06:49.595Z,9.90
2022-11-29T09:09:17.167Z,9.90
2022-11-29T09:11:48.195Z,9.90
2022-11-29T09:14:16.698Z,9.90
2022-11-29T09:16:43.746Z,9.90
2022-11-29T09:19:13.547Z,10.00
2022-11-29T09:21:40.569Z,10.10
2022-11-29T09:24:08.034Z,10.00
2022-11-29T09:26:36.020Z,10.00
2022-11-29T09:29:03.979Z,10.10
2022-11-29T09:31:31.485Z,10.00
2022-11-29T09:33:58.568Z,10.00
2022-11-29T09:36:28.859Z,10.00
2022-11-29T09:39:00.676Z,10.10
2022-11-29T09:41:30.656Z,10.10
2022-11-29T09:44:30.030Z,10.00
2022-11-29T09:47:15.560Z,10.00
2022-11-29T09:50:00.990Z,10.10
2022-11-29T09:52:27.932Z,10.10
2022-11-29T09:55:00.528Z,10.10
2022-11-29T09:57:28.456Z,10.20
2022-11-29T09:59:58.732Z,10.20
2022-11-29T10:02:34.360Z,10.20
2022-11-29T10:05:06.280Z,10.20
2022-11-29T10:07:42.895Z,10.20
2022-11-29T10:10:16.310Z,10.20
2022-11-29T10:12:47.740Z,10.30
2022-11-29T10:15:17.834Z,10.30
2022-11-29T10:17:47.517Z,10.30
2022-11-29T10:20:25.379Z,10.30
2022-11-29T10:22:58.350Z,10.30
2022-11-29T10:25:27.597Z,10.40
2022-11-29T10:27:54.597Z,10.40
2022-11-29T10:30:22.009Z,10.40
2022-11-29T10:32:51.827Z,10.40
2022-11-29T10:35:19.609Z,10.50
2022-11-29T10:38:07.604Z,10.50
2022-11-29T10:40:35.838Z,10.50
2022-11-29T10:43:03.027Z,10.50
2022-11-29T10:45:31.399Z,10.50
2022-11-29T10:48:02.038Z,10.50
2022-11-29T10:50:30.593Z,10.60
2022-11-29T10:53:00.769Z,10.80
2022-11-29T10:55:29.154Z,10.70
2022-11-29T10:58:02.316Z,10.60
2022-11-29T11:00:29.247Z,10.60
2022-11-29T11:02:56.434Z,10.70
2022-11-29T11:05:26.429Z,10.70
2022-11-29T11:07:57.551Z,10.70
2022-11-29T11:10:28.752Z,10.80
2022-11-29T11:13:03.380Z,10.80
2022-11-29T11:15:31.611Z,10.90
2022-11-29T11:18:03.771Z,11.00
2022-11-29T11:20:32.339Z,11.10
2022-11-29T11:23:01.352Z,11.10
2022-11-29T11:25:34.650Z,11.10
2022-11-29T11:28:18.170Z,11.20
2022-11-29T11:31:00.135Z,11.20
2022-11-29T11:33:28.833Z,11.20
2022-11-29T11:36:01.629Z,11.20
2022-11-29T11:38:28.751Z,11.30
2022-11-29T11:41:03.305Z,11.30
2022-11-29T11:43:30.552Z,11.30
2022-11-29T11:45:57.659Z,11.30
2022-11-29T11:48:24.953Z,11.40
2022-11-29T11:50:53.605Z,11.50
2022-11-29T11:53:36.894Z,11.50
2022-11-29T11:56:12.320Z,11.50
2022-11-29T11:58:45.372Z,11.50
2022-11-29T12:01:12.479Z,11.50
2022-11-29T12:03:48.519Z,11.50
2022-11-29T12:06:27.269Z,11.60
2022-11-29T12:08:58.108Z,11.60
2022-11-29T12:11:25.645Z,11.60
2022-11-29T12:13:53.655Z,11.60
2022-11-29T12:16:28.338Z,11.70
2022-11-29T12:19:05.018Z,11.70
2022-11-29T12:21:34.637Z,11.70
2022-11-29T12:24:01.593Z,11.70
2022-11-29T12:27:02.872Z,11.70
2022-11-29T12:29:31.695Z,11.70
2022-11-29T12:32:18.956Z,11.70
2022-11-29T12:35:21.603Z,11.70
2022-11-29T12:37:48.536Z,11.80
2022-11-29T12:40:30.793Z,11.80
2022-11-29T12:43:23.991Z,11.80
2022-11-29T12:46:01.359Z,11.70
2022-11-29T12:48:47.058Z,11.70
2022-11-29T12:51:26.895Z,11.70
2022-11-29T12:54:12.101Z,11.80
2022-11-29T12:56:57.455Z,11.80
2022-11-29T12:59:34.784Z,11.80
2022-11-29T13:02:07.788Z,11.80
2022-11-29T13:04:36.255Z,11.80
2022-11-29T13:07:10.950Z,11.80
2022-11-29T13:09:40.973Z,11.80
2022-11-29T13:12:22.885Z,11.70
2022-11-29T13:15:04.863Z,11.70
2022-11-29T13:17:43.813Z,11.70
2022-11-29T13:20:22.185Z,11.70
2022-11-29T13:23:09.424Z,11.70
2022-11-29T13:25:44.660Z,11.70
2022-11-29T13:28:18.065Z,11.70
2022-11-29T13:30:45.027Z,11.70
2022-11-29T13:33:33.381Z,11.70
2022-11-29T13:36:00.393Z,11.70
2022-11-29T13:38:36.544Z,11.70
2022-11-29T13:41:19.022Z,11.70
2022-11-29T13:43:49.150Z,11.80
2022-11-29T13:46:22.846Z,11.70
2022-11-29T13:48:51.104Z,11.60
2022-11-29T13:51:34.349Z,11.60
2022-11-29T13:54:03.207Z,11.60
2022-11-29T13:56:42.572Z,11.60
2022-11-29T13:59:16.067Z,11.60
2022-11-29T14:01:50.957Z,11.60
2022-11-29T14:04:35.912Z,11.60
2022-11-29T14:07:11.394Z,11.60
2022-11-29T14:09:41.943Z,11.50
2022-11-29T14:12:18.505Z,11.60
2022-11-29T14:14:51.464Z,11.50
2022-11-29T14:17:32.142Z,11.50
2022-11-29T14:20:17.592Z,11.60
2022-11-29T14:23:03.028Z,11.60
2022-11-29T14:28:18.161Z,11.70
2022-11-29T14:30:52.199Z,11.70
2022-11-29T14:33:25.453Z,11.80
2022-11-29T14:36:10.855Z,11.80
2022-11-29T14:38:49.704Z,11.70
2022-11-29T14:41:27.545Z,11.70
2022-11-29T14:44:04.854Z,11.70
2022-11-29T14:46:32.518Z,11.70
2022-11-29T14:49:01.495Z,11.90
2022-11-29T14:51:32.327Z,11.60
2022-11-29T14:54:09.356Z,11.60
2022-11-29T14:56:42.600Z,11.60
2022-11-29T14:59:28.238Z,11.60
2022-11-29T15:01:55.846Z,11.60
2022-11-29T15:04:25.626Z,11.60
2022-11-29T15:06:55.634Z,11.60
2022-11-29T15:09:23.745Z,11.60
2022-11-29T15:11:52.837Z,11.70
2022-11-29T15:14:25.732Z,11.60
2022-11-29T15:17:00.434Z,11.50
2022-11-29T15:19:33.316Z,11.50
2022-11-29T15:22:07.385Z,11.50
2022-11-29T15:24:49.423Z,11.40
2022-11-29T15:27:18.099Z,11.40
2022-11-29T15:29:48.567Z,11.50
2022-11-29T15:32:19.242Z,11.50
2022-11-29T15:34:50.605Z,11.50
2022-11-29T15:37:36.502Z,11.50
2022-11-29T15:40:16.895Z,11.50
2022-11-29T15:42:47.210Z,11.50
2022-11-29T15:45:29.262Z,11.50
2022-11-29T15:48:10.562Z,11.40
2022-11-29T15:50:37.944Z,11.40
2022-11-29T15:53:06.620Z,11.40
2022-11-29T15:55:33.672Z,11.60
2022-11-29T15:58:06.964Z,11.40
2022-11-29T16:00:35.927Z,11.40
2022-11-29T16:03:04.926Z,11.40
2022-11-29T16:05:33.758Z,11.40
2022-11-29T16:08:01.778Z,11.40
2022-11-29T16:10:36.142Z,11.60
2022-11-29T16:13:23.120Z,11.40
2022-11-29T16:16:02.377Z,11.40
2022-11-29T16:18:29.487Z,11.40
2022-11-29T16:21:00.097Z,11.50
2022-11-29T16:23:34.093Z,11.50
2022-11-29T16:26:02.520Z,11.50
2022-11-29T16:28:32.862Z,11.50
2022-11-29T16:31:00.148Z,11.50
2022-11-29T16:33:27.292Z,11.40
2022-11-29T16:36:11.508Z,11.40
2022-11-29T16:38:43.898Z,11.30
2022-11-29T16:41:29.538Z,11.30
2022-11-29T16:43:57.563Z,11.20
2022-11-29T16:46:26.071Z,11.20
2022-11-29T16:48:53.641Z,11.20
2022-11-29T16:51:24.900Z,11.20
2022-11-29T16:53:52.748Z,11.20
2022-11-29T16:56:24.785Z,11.40
2022-11-29T16:59:25.893Z,11.20
2022-11-29T17:01:40.715Z,11.20
2022-11-29T17:04:08.679Z,11.10
2022-11-29T17:06:35.899Z,11.10
2022-11-29T17:09:02.985Z,11.10
2022-11-29T17:11:29.944Z,11.40
2022-11-29T17:13:56.912Z,11.10
2022-11-29T17:16:24.463Z,11.30
2022-11-29T17:18:52.954Z,11.20
2022-11-29T17:21:21.169Z,11.10
2022-11-29T17:23:48.157Z,11.10
2022-11-29T17:26:15.524Z,11.10
2022-11-29T17:28:43.160Z,11.30
2022-11-29T17:31:11.226Z,11.20
2022-11-29T17:33:38.303Z,11.10
2022-11-29T17:36:09.715Z,11.10
2022-11-29T17:38:37.134Z,11.10
2022-11-29T17:41:08.191Z,11.10
2022-11-29T17:43:36.364Z,11.20
2022-11-29T17:46:09.860Z,11.30
2022-11-29T17:48:38.484Z,11.20
2022-11-29T17:51:13.488Z,11.20
2022-11-29T17:53:54.349Z,11.20
2022-11-29T17:56:22.659Z,11.20
2022-11-29T17:58:53.569Z,11.20
2022-11-29T18:01:21.990Z,11.10
2022-11-29T18:03:51.346Z,11.20
2022-11-29T18:06:19.604Z,11.20
2022-11-29T18:08:47.590Z,11.20
2022-11-29T18:11:14.584Z,11.20
2022-11-29T18:13:41.555Z,11.30
2022-11-29T18:16:09.834Z,11.20
2022-11-29T18:18:37.360Z,11.10
2022-11-29T18:21:05.560Z,11.10
2022-11-29T18:23:33.809Z,11.10
2022-11-29T18:26:02.200Z,11.20
2022-11-29T18:28:29.544Z,11.10
2022-11-29T18:30:56.712Z,11.10
2022-11-29T18:33:23.956Z,11.10
2022-11-29T18:35:51.443Z,11.10
2022-11-29T18:38:18.402Z,11.20
2022-11-29T18:40:45.737Z,11.10
2022-11-29T18:43:15.413Z,11.10
2022-11-29T18:45:42.453Z,11.10
2022-11-29T18:48:09.525Z,11.10
2022-11-29T18:50:36.479Z,11.20
2022-11-29T18:53:03.572Z,11.20
2022-11-29T18:55:30.558Z,11.10
2022-11-29T18:57:57.516Z,11.10
2022-11-29T19:00:24.474Z,11.30
2022-11-29T19:02:51.547Z,11.10
2022-11-29T19:05:18.613Z,11.10
2022-11-29T19:07:45.669Z,11.10
2022-11-29T19:10:12.651Z,11.10
2022-11-29T19:12:39.610Z,11.10
2022-11-29T19:15:07.231Z,11.30
2022-11-29T19:17:37.602Z,11.00
2022-11-29T19:20:09.043Z,11.10
2022-11-29T19:22:36.025Z,11.10
2022-11-29T19:25:02.991Z,11.10
2022-11-29T19:27:29.943Z,11.10
2022-11-29T19:29:56.915Z,11.10
2022-11-29T19:32:23.840Z,11.10
2022-11-29T19:34:50.830Z,11.10
2022-11-29T19:37:17.764Z,11.10
2022-11-29T19:39:45.031Z,11.10
2022-11-29T19:42:12.143Z,11.20
2022-11-29T19:45:08.588Z,11.30
2022-11-29T19:47:25.976Z,11.20
2022-11-29T19:49:54.350Z,11.20
2022-11-29T19:52:22.838Z,11.20
2022-11-29T19:54:49.906Z,11.20
2022-11-29T19:57:17.238Z,11.20
2022-11-29T19:59:44.527Z,11.20
2022-11-29T20:02:11.977Z,11.20
2022-11-29T20:04:38.969Z,11.20
2022-11-29T20:07:05.936Z,11.20
2022-11-29T20:09:33.091Z,11.10
2022-11-29T20:12:00.077Z,11.10
2022-11-29T20:14:27.654Z,11.00
2022-11-29T20:16:54.593Z,11.30
2022-11-29T20:19:21.705Z,11.20
2022-11-29T20:21:49.035Z,11.20
2022-11-29T20:24:16.460Z,11.10
2022-11-29T20:26:44.931Z,11.00
2022-11-29T20:29:12.033Z,11.00
2022-11-29T20:31:44.327Z,11.10
2022-11-29T20:34:14.958Z,11.10
2022-11-29T20:36:44.779Z,11.10
2022-11-29T20:39:20.839Z,11.10
2022-11-29T20:41:53.625Z,11.10
2022-11-29T20:44:22.759Z,11.00
2022-11-29T20:46:49.842Z,11.00
2022-11-29T20:49:17.920Z,11.00
2022-11-29T20:51:49.494Z,11.00
2022-11-29T20:54:17.671Z,11.00
2022-11-29T20:56:44.660Z,11.00
2022-11-29T20:59:11.824Z,11.10
2022-11-29T21:01:38.922Z,11.20
2022-11-29T21:04:05.967Z,11.10
2022-11-29T21:06:36.580Z,11.10
2022-11-29T21:09:03.788Z,11.10
2022-11-29T21:11:31.051Z,11.00
2022-11-29T21:13:58.300Z,11.00
2022-11-29T21:16:28.601Z,11.00
2022-11-29T21:18:59.591Z,10.90
2022-11-29T21:21:37.282Z,10.90
2022-11-29T21:24:04.455Z,10.90
2022-11-29T21:26:40.028Z,10.90
2022-11-29T21:29:21.709Z,10.80
2022-11-29T21:31:50.348Z,10.80
2022-11-29T21:34:17.367Z,10.80
2022-11-29T21:36:44.874Z,10.80
2022-11-29T21:39:13.024Z,10.80
2022-11-29T21:41:40.227Z,10.80
2022-11-29T21:44:08.184Z,10.80
2022-11-29T21:46:35.619Z,10.70
2022-11-29T21:49:02.718Z,10.80
2022-11-29T21:51:29.669Z,10.80
2022-11-29T21:53:56.596Z,10.80
2022-11-29T21:56:23.578Z,10.70
2022-11-29T21:58:50.726Z,10.70
2022-11-29T22:01:19.353Z,10.70
2022-11-29T22:03:46.425Z,10.70
2022-11-29T22:06:14.819Z,10.70
2022-11-29T22:08:42.105Z,10.70
2022-11-29T22:11:13.395Z,10.70
2022-11-29T22:14:01.125Z,10.70
2022-11-29T22:16:28.891Z,10.70
2022-11-29T22:18:55.884Z,10.80
2022-11-29T22:21:22.879Z,10.80
2022-11-29T22:23:51.528Z,10.70
2022-11-29T22:26:18.612Z,10.70
2022-11-29T22:28:45.755Z,10.70
2022-11-29T22:31:12.816Z,10.90
2022-11-29T22:33:40.049Z,10.80
2022-11-29T22:36:08.143Z,10.70
2022-11-29T22:38:35.361Z,10.70
2022-11-29T22:41:03.916Z,10.80
2022-11-29T22:43:31.372Z,10.80
2022-11-29T22:46:08.075Z,10.60
2022-11-29T22:48:38.758Z,10.60
2022-11-29T22:51:10.463Z,10.60
2022-11-29T22:53:38.849Z,10.60
2022-11-29T22:56:07.283Z,10.60
2022-11-29T22:58:34.698Z,10.70
2022-11-29T23:01:11.958Z,10.70
2022-11-29T23:03:39.817Z,10.70
2022-11-29T23:06:08.192Z,10.70
2022-11-29T23:08:35.884Z,10.60
2022-11-29T23:11:04.476Z,10.70
2022-11-29T23:13:32.390Z,10.60
2022-11-29T23:15:59.769Z,10.60
2022-11-29T23:18:27.018Z,10.60
2022-11-29T23:21:00.450Z,10.60
2022-11-29T23:23:27.640Z,10.50
2022-11-29T23:25:54.637Z,10.60
2022-11-29T23:28:21.586Z,10.60
2022-11-29T23:30:48.515Z,10.60
2022-11-29T23:33:15.488Z,10.50
2022-11-29T23:35:42.553Z,10.60
2022-11-29T23:38:09.500Z,10.50
2022-11-29T23:40:36.476Z,10.40
2022-11-29T23:43:03.492Z,10.40
2022-11-29T23:45:30.464Z,10.40
2022-11-29T23:47:57.715Z,10.40
2022-11-29T23:50:24.758Z,10.40
2022-11-29T23:52:52.657Z,10.40
2022-11-29T23:55:19.958Z,10.40
2022-11-29T23:57:46.963Z,10.40
